sensor_id;sensor_type;location;lat;lon;timestamp;pressure;altitude;pressure_sealevel;temperature;humidity
41703;BME280;861;48.808;9.006;2024-02-26T00:01:04;95208.84;;;9.74;58.55
41703;BME280;861;48.808;9.006;2024-02-26T00:03:31;95212.91;;;9.66;58.60
41703;BME280;861;48.808;9.006;2024-02-26T00:05:59;95206.09;;;9.42;59.59
41703;BME280;861;48.808;9.006;2024-02-26T00:08:26;95203.03;;;9.40;60.09
41703;BME280;861;48.808;9.006;2024-02-26T00:10:53;95203.34;;;9.25;60.32
41703;BME280;861;48.808;9.006;2024-02-26T00:13:19;95201.03;;;9.24;60.36
41703;BME280;861;48.808;9.006;2024-02-26T00:15:46;95195.16;;;9.45;60.43
41703;BME280;861;48.808;9.006;2024-02-26T00:18:13;95193.78;;;9.69;59.96
41703;BME280;861;48.808;9.006;2024-02-26T00:20:40;95195.66;;;9.40;59.89
41703;BME280;861;48.808;9.006;2024-02-26T00:23:09;95195.69;;;9.72;59.97
41703;BME280;861;48.808;9.006;2024-02-26T00:25:36;95197.47;;;9.95;58.55
41703;BME280;861;48.808;9.006;2024-02-26T00:28:05;95199.25;;;9.85;58.43
41703;BME280;861;48.808;9.006;2024-02-26T00:30:32;95208.31;;;9.95;58.39
41703;BME280;861;48.808;9.006;2024-02-26T00:32:58;95200.69;;;9.90;58.53
41703;BME280;861;48.808;9.006;2024-02-26T00:35:25;95200.16;;;9.95;58.31
41703;BME280;861;48.808;9.006;2024-02-26T00:37:51;95204.00;;;9.97;58.01
41703;BME280;861;48.808;9.006;2024-02-26T00:40:18;95193.25;;;10.10;57.92
41703;BME280;861;48.808;9.006;2024-02-26T00:42:45;95201.72;;;10.12;57.95
41703;BME280;861;48.808;9.006;2024-02-26T00:45:13;95198.56;;;10.13;58.33
41703;BME280;861;48.808;9.006;2024-02-26T00:47:41;95195.69;;;10.20;57.47
41703;BME280;861;48.808;9.006;2024-02-26T00:50:08;95196.38;;;10.08;57.65
41703;BME280;861;48.808;9.006;2024-02-26T00:52:35;95203.91;;;10.01;58.30
41703;BME280;861;48.808;9.006;2024-02-26T00:55:04;95204.69;;;10.01;58.36
41703;BME280;861;48.808;9.006;2024-02-26T00:57:31;95198.47;;;10.17;57.46
41703;BME280;861;48.808;9.006;2024-02-26T00:59:57;95205.78;;;9.88;59.02
41703;BME280;861;48.808;9.006;2024-02-26T01:02:25;95200.34;;;10.04;58.39
41703;BME280;861;48.808;9.006;2024-02-26T01:04:53;95199.75;;;9.96;58.93
41703;BME280;861;48.808;9.006;2024-02-26T01:07:20;95199.50;;;10.07;58.40
41703;BME280;861;48.808;9.006;2024-02-26T01:09:47;95195.84;;;10.13;58.13
41703;BME280;861;48.808;9.006;2024-02-26T01:12:15;95190.53;;;10.10;58.21
41703;BME280;861;48.808;9.006;2024-02-26T01:14:42;95186.00;;;10.03;58.43
41703;BME280;861;48.808;9.006;2024-02-26T01:17:09;95155.44;;;9.83;58.94
41703;BME280;861;48.808;9.006;2024-02-26T01:19:35;95159.59;;;9.04;60.07
41703;BME280;861;48.808;9.006;2024-02-26T01:22:02;95162.25;;;9.07;60.96
41703;BME280;861;48.808;9.006;2024-02-26T01:24:30;95168.97;;;8.64;62.78
41703;BME280;861;48.808;9.006;2024-02-26T01:26:56;95170.84;;;8.67;62.95
41703;BME280;861;48.808;9.006;2024-02-26T01:29:23;95170.28;;;9.11;62.29
41703;BME280;861;48.808;9.006;2024-02-26T01:31:49;95172.75;;;9.05;61.86
41703;BME280;861;48.808;9.006;2024-02-26T01:34:16;95193.94;;;9.30;61.62
41703;BME280;861;48.808;9.006;2024-02-26T01:36:44;95218.66;;;9.16;62.24
41703;BME280;861;48.808;9.006;2024-02-26T01:39:11;95214.66;;;9.40;62.53
41703;BME280;861;48.808;9.006;2024-02-26T01:41:42;95213.03;;;9.43;63.05
41703;BME280;861;48.808;9.006;2024-02-26T01:44:08;95214.31;;;9.38;62.46
41703;BME280;861;48.808;9.006;2024-02-26T01:46:39;95226.63;;;9.43;61.39
41703;BME280;861;48.808;9.006;2024-02-26T01:49:07;95225.06;;;9.61;61.41
41703;BME280;861;48.808;9.006;2024-02-26T01:51:41;95233.97;;;9.62;61.56
41703;BME280;861;48.808;9.006;2024-02-26T01:54:10;95226.91;;;9.48;61.51
41703;BME280;861;48.808;9.006;2024-02-26T01:56:40;95239.63;;;9.51;60.87
41703;BME280;861;48.808;9.006;2024-02-26T01:59:09;95239.16;;;9.56;60.45
41703;BME280;861;48.808;9.006;2024-02-26T02:01:41;95232.94;;;9.56;60.32
41703;BME280;861;48.808;9.006;2024-02-26T02:04:12;95241.75;;;9.60;59.94
41703;BME280;861;48.808;9.006;2024-02-26T02:06:45;95243.50;;;9.34;60.59
41703;BME280;861;48.808;9.006;2024-02-26T02:09:13;95246.53;;;9.20;61.15
41703;BME280;861;48.808;9.006;2024-02-26T02:11:40;95243.03;;;9.39;61.25
41703;BME280;861;48.808;9.006;2024-02-26T02:14:07;95248.53;;;9.36;60.75
41703;BME280;861;48.808;9.006;2024-02-26T02:16:34;95247.59;;;8.87;62.47
41703;BME280;861;48.808;9.006;2024-02-26T02:19:01;95259.13;;;8.71;63.65
41703;BME280;861;48.808;9.006;2024-02-26T02:21:27;95256.13;;;8.66;64.05
41703;BME280;861;48.808;9.006;2024-02-26T02:23:54;95258.16;;;8.81;63.52
41703;BME280;861;48.808;9.006;2024-02-26T02:26:21;95249.66;;;8.79;61.89
41703;BME280;861;48.808;9.006;2024-02-26T02:28:49;95268.16;;;8.84;59.52
41703;BME280;861;48.808;9.006;2024-02-26T02:31:16;95257.38;;;8.81;60.51
41703;BME280;861;48.808;9.006;2024-02-26T02:33:44;95242.50;;;8.89;61.76
41703;BME280;861;48.808;9.006;2024-02-26T02:36:11;95246.41;;;8.88;62.72
41703;BME280;861;48.808;9.006;2024-02-26T02:38:38;95249.78;;;8.92;62.49
41703;BME280;861;48.808;9.006;2024-02-26T02:41:16;95232.06;;;9.07;62.77
41703;BME280;861;48.808;9.006;2024-02-26T02:43:44;95238.16;;;9.11;62.91
41703;BME280;861;48.808;9.006;2024-02-26T02:46:11;95249.25;;;9.20;63.57
41703;BME280;861;48.808;9.006;2024-02-26T02:48:42;95239.63;;;9.15;63.37
41703;BME280;861;48.808;9.006;2024-02-26T02:51:09;95243.94;;;9.49;64.38
41703;BME280;861;48.808;9.006;2024-02-26T02:53:37;95248.31;;;9.62;62.87
41703;BME280;861;48.808;9.006;2024-02-26T02:56:03;95243.91;;;9.68;63.15
41703;BME280;861;48.808;9.006;2024-02-26T02:58:30;95243.66;;;9.63;61.40
41703;BME280;861;48.808;9.006;2024-02-26T03:00:57;95251.66;;;9.34;62.88
41703;BME280;861;48.808;9.006;2024-02-26T03:03:26;95253.03;;;9.42;62.04
41703;BME280;861;48.808;9.006;2024-02-26T03:05:55;95236.88;;;9.35;63.95
41703;BME280;861;48.808;9.006;2024-02-26T03:08:22;95230.47;;;9.45;63.48
41703;BME280;861;48.808;9.006;2024-02-26T03:10:48;95233.06;;;9.32;64.57
41703;BME280;861;48.808;9.006;2024-02-26T03:13:15;95235.78;;;9.49;66.28
41703;BME280;861;48.808;9.006;2024-02-26T03:15:42;95238.41;;;9.72;66.22
41703;BME280;861;48.808;9.006;2024-02-26T03:18:08;95236.19;;;9.67;65.96
41703;BME280;861;48.808;9.006;2024-02-26T03:20:35;95238.66;;;9.77;65.98
41703;BME280;861;48.808;9.006;2024-02-26T03:23:04;95234.44;;;10.08;65.14
41703;BME280;861;48.808;9.006;2024-02-26T03:25:30;95227.94;;;10.02;63.97
41703;BME280;861;48.808;9.006;2024-02-26T03:27:57;95244.34;;;9.31;66.67
41703;BME280;861;48.808;9.006;2024-02-26T03:30:24;95234.84;;;9.03;65.84
41703;BME280;861;48.808;9.006;2024-02-26T03:32:50;95228.50;;;8.90;64.30
41703;BME280;861;48.808;9.006;2024-02-26T03:35:17;95225.31;;;8.95;64.71
41703;BME280;861;48.808;9.006;2024-02-26T03:37:45;95227.03;;;8.86;64.95
41703;BME280;861;48.808;9.006;2024-02-26T03:40:13;95212.50;;;8.96;64.78
41703;BME280;861;48.808;9.006;2024-02-26T03:42:40;95192.75;;;9.31;62.40
41703;BME280;861;48.808;9.006;2024-02-26T03:45:08;95197.59;;;9.40;62.35
41703;BME280;861;48.808;9.006;2024-02-26T03:47:37;95180.19;;;9.37;63.33
41703;BME280;861;48.808;9.006;2024-02-26T03:50:05;95169.75;;;9.68;63.54
41703;BME280;861;48.808;9.006;2024-02-26T03:52:34;95170.69;;;9.77;64.45
41703;BME280;861;48.808;9.006;2024-02-26T03:55:01;95179.38;;;9.72;64.31
41703;BME280;861;48.808;9.006;2024-02-26T03:57:27;95172.91;;;9.82;63.99
41703;BME280;861;48.808;9.006;2024-02-26T03:59:54;95180.81;;;9.61;64.58
41703;BME280;861;48.808;9.006;2024-02-26T04:02:20;95177.41;;;9.89;64.35
41703;BME280;861;48.808;9.006;2024-02-26T04:04:49;95175.28;;;9.96;64.58
41703;BME280;861;48.808;9.006;2024-02-26T04:07:16;95178.09;;;10.09;63.55
41703;BME280;861;48.808;9.006;2024-02-26T04:09:42;95177.56;;;9.98;64.31
41703;BME280;861;48.808;9.006;2024-02-26T04:12:09;95178.09;;;10.09;64.08
41703;BME280;861;48.808;9.006;2024-02-26T04:14:37;95183.09;;;10.10;63.17
41703;BME280;861;48.808;9.006;2024-02-26T04:17:03;95180.91;;;10.05;62.84
41703;BME280;861;48.808;9.006;2024-02-26T04:19:30;95177.06;;;10.03;63.41
41703;BME280;861;48.808;9.006;2024-02-26T04:21:57;95169.56;;;10.23;62.83
41703;BME280;861;48.808;9.006;2024-02-26T04:24:23;95162.81;;;10.43;61.43
41703;BME280;861;48.808;9.006;2024-02-26T04:26:50;95175.78;;;10.23;62.15
41703;BME280;861;48.808;9.006;2024-02-26T04:29:17;95180.00;;;10.40;64.27
41703;BME280;861;48.808;9.006;2024-02-26T04:31:43;95195.88;;;10.42;62.47
41703;BME280;861;48.808;9.006;2024-02-26T04:34:10;95191.75;;;10.21;63.48
41703;BME280;861;48.808;9.006;2024-02-26T04:36:36;95186.88;;;10.45;64.46
41703;BME280;861;48.808;9.006;2024-02-26T04:39:03;95188.59;;;10.39;64.05
41703;BME280;861;48.808;9.006;2024-02-26T04:41:29;95198.47;;;10.17;65.27
41703;BME280;861;48.808;9.006;2024-02-26T04:43:56;95197.19;;;10.37;65.71
41703;BME280;861;48.808;9.006;2024-02-26T04:46:23;95196.63;;;10.14;66.10
41703;BME280;861;48.808;9.006;2024-02-26T04:48:49;95194.22;;;9.68;65.58
41703;BME280;861;48.808;9.006;2024-02-26T04:51:16;95195.25;;;9.74;65.04
41703;BME280;861;48.808;9.006;2024-02-26T04:53:42;95212.50;;;9.83;64.68
41703;BME280;861;48.808;9.006;2024-02-26T04:56:09;95194.50;;;9.89;64.65
41703;BME280;861;48.808;9.006;2024-02-26T04:58:35;95201.28;;;9.97;63.39
41703;BME280;861;48.808;9.006;2024-02-26T05:01:02;95201.28;;;9.65;64.37
41703;BME280;861;48.808;9.006;2024-02-26T05:03:29;95199.50;;;9.75;64.56
41703;BME280;861;48.808;9.006;2024-02-26T05:05:56;95202.03;;;9.82;64.08
41703;BME280;861;48.808;9.006;2024-02-26T05:08:24;95206.72;;;9.81;64.06
41703;BME280;861;48.808;9.006;2024-02-26T05:10:51;95202.56;;;9.77;64.50
41703;BME280;861;48.808;9.006;2024-02-26T05:13:17;95211.81;;;9.79;64.59
41703;BME280;861;48.808;9.006;2024-02-26T05:15:44;95219.03;;;10.02;64.29
41703;BME280;861;48.808;9.006;2024-02-26T05:18:13;95220.31;;;10.13;63.50
41703;BME280;861;48.808;9.006;2024-02-26T05:20:39;95219.66;;;10.25;63.26
41703;BME280;861;48.808;9.006;2024-02-26T05:23:06;95223.97;;;10.23;62.10
41703;BME280;861;48.808;9.006;2024-02-26T05:25:32;95223.03;;;10.13;62.61
41703;BME280;861;48.808;9.006;2024-02-26T05:27:59;95227.53;;;10.04;63.19
41703;BME280;861;48.808;9.006;2024-02-26T05:30:26;95226.25;;;9.92;62.82
41703;BME280;861;48.808;9.006;2024-02-26T05:32:55;95240.03;;;10.01;62.09
41703;BME280;861;48.808;9.006;2024-02-26T05:35:21;95240.28;;;9.91;62.84
41703;BME280;861;48.808;9.006;2024-02-26T05:37:48;95252.44;;;9.86;62.36
41703;BME280;861;48.808;9.006;2024-02-26T05:40:15;95246.34;;;10.14;62.43
41703;BME280;861;48.808;9.006;2024-02-26T05:42:41;95253.47;;;10.24;63.33
41703;BME280;861;48.808;9.006;2024-02-26T05:45:10;95263.63;;;9.72;66.60
41703;BME280;861;48.808;9.006;2024-02-26T05:47:37;95284.13;;;9.57;66.97
41703;BME280;861;48.808;9.006;2024-02-26T05:50:10;95277.56;;;9.90;65.70
41703;BME280;861;48.808;9.006;2024-02-26T05:52:38;95270.31;;;9.68;66.64
41703;BME280;861;48.808;9.006;2024-02-26T05:55:06;95271.94;;;9.65;66.09
41703;BME280;861;48.808;9.006;2024-02-26T05:57:37;95275.00;;;8.92;68.82
41703;BME280;861;48.808;9.006;2024-02-26T06:00:04;95285.13;;;8.69;69.64
41703;BME280;861;48.808;9.006;2024-02-26T06:02:31;95260.88;;;9.01;69.32
41703;BME280;861;48.808;9.006;2024-02-26T06:04:58;95263.66;;;9.53;69.12
41703;BME280;861;48.808;9.006;2024-02-26T06:07:25;95255.44;;;10.08;67.22
41703;BME280;861;48.808;9.006;2024-02-26T06:09:52;95257.22;;;10.14;66.70
41703;BME280;861;48.808;9.006;2024-02-26T06:12:18;95256.50;;;9.94;67.47
41703;BME280;861;48.808;9.006;2024-02-26T06:14:45;95262.69;;;9.95;67.59
41703;BME280;861;48.808;9.006;2024-02-26T06:17:11;95268.22;;;9.91;67.35
41703;BME280;861;48.808;9.006;2024-02-26T06:19:38;95269.25;;;9.97;67.64
41703;BME280;861;48.808;9.006;2024-02-26T06:22:05;95267.47;;;9.91;68.12
41703;BME280;861;48.808;9.006;2024-02-26T06:24:33;95268.66;;;10.06;67.11
41703;BME280;861;48.808;9.006;2024-02-26T06:27:01;95270.84;;;9.95;67.55
41703;BME280;861;48.808;9.006;2024-02-26T06:29:29;95277.50;;;9.94;67.43
41703;BME280;861;48.808;9.006;2024-02-26T06:31:57;95275.13;;;10.12;67.14
41703;BME280;861;48.808;9.006;2024-02-26T06:34:23;95281.31;;;9.96;67.28
41703;BME280;861;48.808;9.006;2024-02-26T06:36:50;95284.88;;;9.93;66.85
41703;BME280;861;48.808;9.006;2024-02-26T06:39:17;95276.59;;;10.16;66.66
41703;BME280;861;48.808;9.006;2024-02-26T06:41:44;95285.03;;;9.86;67.03
41703;BME280;861;48.808;9.006;2024-02-26T06:44:13;95289.78;;;9.82;66.63
41703;BME280;861;48.808;9.006;2024-02-26T06:46:41;95291.34;;;9.83;66.75
41703;BME280;861;48.808;9.006;2024-02-26T06:49:07;95297.69;;;9.77;66.81
41703;BME280;861;48.808;9.006;2024-02-26T06:51:34;95301.22;;;10.09;66.49
41703;BME280;861;48.808;9.006;2024-02-26T06:54:00;95301.41;;;10.18;66.03
41703;BME280;861;48.808;9.006;2024-02-26T06:56:27;95308.63;;;9.73;66.44
41703;BME280;861;48.808;9.006;2024-02-26T06:58:54;95314.09;;;9.89;66.34
41703;BME280;861;48.808;9.006;2024-02-26T07:01:21;95320.63;;;9.92;66.05
41703;BME280;861;48.808;9.006;2024-02-26T07:03:48;95320.22;;;9.93;66.55
41703;BME280;861;48.808;9.006;2024-02-26T07:06:15;95322.00;;;10.00;66.58
41703;BME280;861;48.808;9.006;2024-02-26T07:08:43;95322.44;;;9.98;67.56
41703;BME280;861;48.808;9.006;2024-02-26T07:11:10;95328.22;;;10.00;67.54
41703;BME280;861;48.808;9.006;2024-02-26T07:13:37;95335.34;;;9.94;67.06
41703;BME280;861;48.808;9.006;2024-02-26T07:16:05;95334.22;;;9.92;66.95
41703;BME280;861;48.808;9.006;2024-02-26T07:18:31;95325.47;;;9.84;67.20
41703;BME280;861;48.808;9.006;2024-02-26T07:21:01;95327.94;;;9.95;67.16
41703;BME280;861;48.808;9.006;2024-02-26T07:23:28;95341.16;;;9.77;67.59
41703;BME280;861;48.808;9.006;2024-02-26T07:25:54;95338.53;;;9.73;67.11
41703;BME280;861;48.808;9.006;2024-02-26T07:28:21;95344.91;;;9.83;67.40
41703;BME280;861;48.808;9.006;2024-02-26T07:30:47;95336.91;;;9.76;67.29
41703;BME280;861;48.808;9.006;2024-02-26T07:33:14;95330.53;;;9.47;68.50
41703;BME280;861;48.808;9.006;2024-02-26T07:35:41;95326.03;;;9.40;68.85
41703;BME280;861;48.808;9.006;2024-02-26T07:38:07;95334.94;;;9.21;69.63
41703;BME280;861;48.808;9.006;2024-02-26T07:40:34;95324.91;;;9.18;69.98
41703;BME280;861;48.808;9.006;2024-02-26T07:43:00;95333.56;;;9.32;69.35
41703;BME280;861;48.808;9.006;2024-02-26T07:45:27;95331.53;;;9.17;70.47
41703;BME280;861;48.808;9.006;2024-02-26T07:47:53;95340.78;;;9.19;70.53
41703;BME280;861;48.808;9.006;2024-02-26T07:50:20;95329.06;;;9.03;71.34
41703;BME280;861;48.808;9.006;2024-02-26T07:52:46;95332.63;;;9.19;70.58
41703;BME280;861;48.808;9.006;2024-02-26T07:55:13;95338.19;;;9.12;70.61
41703;BME280;861;48.808;9.006;2024-02-26T07:57:43;95337.91;;;9.07;70.75
41703;BME280;861;48.808;9.006;2024-02-26T08:00:10;95329.91;;;9.19;70.84
41703;BME280;861;48.808;9.006;2024-02-26T08:02:38;95332.72;;;9.36;70.79
41703;BME280;861;48.808;9.006;2024-02-26T08:05:05;95332.22;;;9.41;70.89
41703;BME280;861;48.808;9.006;2024-02-26T08:07:31;95335.13;;;9.50;70.45
41703;BME280;861;48.808;9.006;2024-02-26T08:09:58;95339.13;;;9.81;70.27
41703;BME280;861;48.808;9.006;2024-02-26T08:12:24;95337.81;;;10.05;68.67
41703;BME280;861;48.808;9.006;2024-02-26T08:14:52;95334.94;;;10.12;68.55
41703;BME280;861;48.808;9.006;2024-02-26T08:17:18;95354.59;;;9.84;70.45
41703;BME280;861;48.808;9.006;2024-02-26T08:19:45;95341.53;;;9.95;69.79
41703;BME280;861;48.808;9.006;2024-02-26T08:22:11;95343.25;;;10.05;70.50
41703;BME280;861;48.808;9.006;2024-02-26T08:24:43;95340.75;;;10.30;69.41
41703;BME280;861;48.808;9.006;2024-02-26T08:27:10;95343.91;;;10.44;69.02
41703;BME280;861;48.808;9.006;2024-02-26T08:29:37;95351.22;;;10.47;69.99
41703;BME280;861;48.808;9.006;2024-02-26T08:32:03;95345.34;;;10.49;69.54
41703;BME280;861;48.808;9.006;2024-02-26T08:34:30;95342.00;;;10.73;67.99
41703;BME280;861;48.808;9.006;2024-02-26T08:36:57;95346.28;;;10.74;67.26
41703;BME280;861;48.808;9.006;2024-02-26T08:39:23;95355.81;;;10.50;68.80
41703;BME280;861;48.808;9.006;2024-02-26T08:41:52;95362.44;;;10.49;69.29
41703;BME280;861;48.808;9.006;2024-02-26T08:44:18;95362.03;;;10.51;69.13
41703;BME280;861;48.808;9.006;2024-02-26T08:46:45;95358.53;;;10.66;67.05
41703;BME280;861;48.808;9.006;2024-02-26T08:49:12;95360.31;;;10.57;68.35
41703;BME280;861;48.808;9.006;2024-02-26T08:51:44;95363.63;;;10.64;68.07
41703;BME280;861;48.808;9.006;2024-02-26T08:54:11;95360.91;;;10.80;67.20
41703;BME280;861;48.808;9.006;2024-02-26T08:56:38;95367.94;;;10.78;67.12
41703;BME280;861;48.808;9.006;2024-02-26T08:59:05;95363.63;;;10.80;67.66
41703;BME280;861;48.808;9.006;2024-02-26T09:01:34;95370.78;;;10.74;67.29
41703;BME280;861;48.808;9.006;2024-02-26T09:04:01;95375.50;;;11.03;66.84
41703;BME280;861;48.808;9.006;2024-02-26T09:06:28;95377.09;;;11.16;66.33
41703;BME280;861;48.808;9.006;2024-02-26T09:08:55;95385.25;;;11.16;65.56
41703;BME280;861;48.808;9.006;2024-02-26T09:11:22;95385.72;;;10.82;66.68
41703;BME280;861;48.808;9.006;2024-02-26T09:13:48;95378.06;;;10.94;66.42
41703;BME280;861;48.808;9.006;2024-02-26T09:16:15;95373.38;;;10.94;66.75
41703;BME280;861;48.808;9.006;2024-02-26T09:18:41;95373.38;;;11.10;66.31
41703;BME280;861;48.808;9.006;2024-02-26T09:21:08;95359.50;;;11.05;67.45
41703;BME280;861;48.808;9.006;2024-02-26T09:23:35;95359.34;;;10.96;67.50
41703;BME280;861;48.808;9.006;2024-02-26T09:26:01;95358.81;;;11.01;67.94
41703;BME280;861;48.808;9.006;2024-02-26T09:28:28;95370.94;;;11.00;67.74
41703;BME280;861;48.808;9.006;2024-02-26T09:30:57;95371.06;;;11.09;67.55
41703;BME280;861;48.808;9.006;2024-02-26T09:33:24;95369.19;;;11.22;67.43
41703;BME280;861;48.808;9.006;2024-02-26T09:35:50;95370.84;;;11.32;66.63
41703;BME280;861;48.808;9.006;2024-02-26T09:38:17;95367.44;;;11.28;67.18
41703;BME280;861;48.808;9.006;2024-02-26T09:40:43;95370.75;;;11.35;67.10
41703;BME280;861;48.808;9.006;2024-02-26T09:43:14;95368.31;;;11.53;66.23
41703;BME280;861;48.808;9.006;2024-02-26T09:45:49;95373.50;;;11.48;66.84
41703;BME280;861;48.808;9.006;2024-02-26T09:48:18;95365.81;;;11.59;67.30
41703;BME280;861;48.808;9.006;2024-02-26T09:50:45;95366.88;;;11.61;68.23
41703;BME280;861;48.808;9.006;2024-02-26T09:53:13;95369.69;;;11.74;67.25
41703;BME280;861;48.808;9.006;2024-02-26T09:55:41;95376.78;;;11.71;67.81
41703;BME280;861;48.808;9.006;2024-02-26T09:58:10;95381.94;;;11.94;67.15
41703;BME280;861;48.808;9.006;2024-02-26T10:00:53;95383.59;;;12.17;67.01
41703;BME280;861;48.808;9.006;2024-02-26T10:03:34;95386.66;;;11.94;66.36
41703;BME280;861;48.808;9.006;2024-02-26T10:06:09;95391.78;;;12.17;65.36
41703;BME280;861;48.808;9.006;2024-02-26T10:08:36;95390.38;;;12.25;67.06
41703;BME280;861;48.808;9.006;2024-02-26T10:11:08;95381.94;;;12.82;65.39
41703;BME280;861;48.808;9.006;2024-02-26T10:13:36;95381.66;;;13.14;62.92
41703;BME280;861;48.808;9.006;2024-02-26T10:16:04;95391.31;;;12.94;64.81
41703;BME280;861;48.808;9.006;2024-02-26T10:18:49;95384.00;;;13.03;63.79
41703;BME280;861;48.808;9.006;2024-02-26T10:21:18;95381.59;;;13.05;63.29
41703;BME280;861;48.808;9.006;2024-02-26T10:23:47;95391.00;;;12.92;63.57
41703;BME280;861;48.808;9.006;2024-02-26T10:26:16;95408.72;;;12.87;63.10
41703;BME280;861;48.808;9.006;2024-02-26T10:28:45;95398.22;;;12.98;62.70
41703;BME280;861;48.808;9.006;2024-02-26T10:31:14;95389.63;;;13.21;61.20
41703;BME280;861;48.808;9.006;2024-02-26T10:33:43;95392.47;;;13.18;61.88
41703;BME280;861;48.808;9.006;2024-02-26T10:36:11;95400.00;;;13.26;60.56
41703;BME280;861;48.808;9.006;2024-02-26T10:38:38;95401.47;;;13.18;61.13
41703;BME280;861;48.808;9.006;2024-02-26T10:41:07;95396.94;;;13.24;60.36
41703;BME280;861;48.808;9.006;2024-02-26T10:43:39;95399.53;;;13.62;58.06
41703;BME280;861;48.808;9.006;2024-02-26T10:46:07;95399.47;;;13.53;58.96
41703;BME280;861;48.808;9.006;2024-02-26T10:48:34;95397.25;;;13.39;59.38
41703;BME280;861;48.808;9.006;2024-02-26T10:51:02;95406.72;;;13.47;58.62
41703;BME280;861;48.808;9.006;2024-02-26T10:53:30;95411.38;;;13.59;56.80
41703;BME280;861;48.808;9.006;2024-02-26T10:56:04;95415.31;;;13.58;58.02
41703;BME280;861;48.808;9.006;2024-02-26T10:58:33;95422.00;;;14.00;58.64
41703;BME280;861;48.808;9.006;2024-02-26T11:01:00;95422.50;;;14.29;57.45
41703;BME280;861;48.808;9.006;2024-02-26T11:03:28;95420.19;;;14.28;57.74
41703;BME280;861;48.808;9.006;2024-02-26T11:06:01;95413.91;;;14.40;57.13
41703;BME280;861;48.808;9.006;2024-02-26T11:08:32;95424.69;;;14.74;55.19
41703;BME280;861;48.808;9.006;2024-02-26T11:11:00;95415.88;;;14.79;54.41
41703;BME280;861;48.808;9.006;2024-02-26T11:13:31;95419.75;;;14.99;54.90
41703;BME280;861;48.808;9.006;2024-02-26T11:16:01;95414.97;;;15.40;53.66
41703;BME280;861;48.808;9.006;2024-02-26T11:18:30;95414.00;;;15.24;54.08
41703;BME280;861;48.808;9.006;2024-02-26T11:21:00;95396.53;;;15.40;52.70
41703;BME280;861;48.808;9.006;2024-02-26T11:23:27;95398.81;;;15.69;51.47
41703;BME280;861;48.808;9.006;2024-02-26T11:25:59;95401.09;;;15.52;52.51
41703;BME280;861;48.808;9.006;2024-02-26T11:28:30;95415.00;;;15.49;52.84
41703;BME280;861;48.808;9.006;2024-02-26T11:31:02;95425.97;;;15.49;52.80
41703;BME280;861;48.808;9.006;2024-02-26T11:33:32;95428.41;;;14.89;54.26
41703;BME280;861;48.808;9.006;2024-02-26T11:35:59;95423.59;;;15.11;54.50
41703;BME280;861;48.808;9.006;2024-02-26T11:38:28;95418.44;;;15.31;52.78
41703;BME280;861;48.808;9.006;2024-02-26T11:40:55;95412.38;;;15.45;53.77
41703;BME280;861;48.808;9.006;2024-02-26T11:43:58;95411.47;;;15.39;53.80
41703;BME280;861;48.808;9.006;2024-02-26T11:46:42;95427.03;;;15.51;53.69
41703;BME280;861;48.808;9.006;2024-02-26T11:51:58;95413.84;;;16.18;53.29
41703;BME280;861;48.808;9.006;2024-02-26T11:57:37;95408.91;;;16.91;49.60
41703;BME280;861;48.808;9.006;2024-02-26T12:00:11;95415.31;;;16.55;49.29
41703;BME280;861;48.808;9.006;2024-02-26T12:02:51;95415.34;;;16.46;50.54
41703;BME280;861;48.808;9.006;2024-02-26T12:05:32;95424.81;;;16.36;50.26
41703;BME280;861;48.808;9.006;2024-02-26T12:08:02;95422.22;;;16.42;49.76
41703;BME280;861;48.808;9.006;2024-02-26T12:10:37;95427.88;;;16.38;48.93
41703;BME280;861;48.808;9.006;2024-02-26T12:13:15;95424.03;;;16.36;49.14
41703;BME280;861;48.808;9.006;2024-02-26T12:15:56;95428.63;;;16.48;48.92
41703;BME280;861;48.808;9.006;2024-02-26T12:18:25;95432.63;;;16.20;48.92
41703;BME280;861;48.808;9.006;2024-02-26T12:21:04;95436.09;;;16.47;47.89
41703;BME280;861;48.808;9.006;2024-02-26T12:23:31;95432.16;;;16.30;48.49
41703;BME280;861;48.808;9.006;2024-02-26T12:26:02;95436.59;;;16.19;50.61
41703;BME280;861;48.808;9.006;2024-02-26T12:28:32;95442.22;;;16.15;50.68
41703;BME280;861;48.808;9.006;2024-02-26T12:30:59;95438.00;;;16.05;50.59
41703;BME280;861;48.808;9.006;2024-02-26T12:33:29;95432.34;;;16.09;49.02
41703;BME280;861;48.808;9.006;2024-02-26T12:35:57;95440.72;;;16.14;49.67
41703;BME280;861;48.808;9.006;2024-02-26T12:38:24;95428.53;;;16.06;49.24
41703;BME280;861;48.808;9.006;2024-02-26T12:40:53;95433.72;;;16.04;49.43
41703;BME280;861;48.808;9.006;2024-02-26T12:43:20;95435.09;;;16.00;50.59
41703;BME280;861;48.808;9.006;2024-02-26T12:45:47;95439.03;;;16.26;49.00
41703;BME280;861;48.808;9.006;2024-02-26T12:48:14;95438.91;;;16.11;48.86
41703;BME280;861;48.808;9.006;2024-02-26T12:50:44;95440.72;;;16.14;49.35
41703;BME280;861;48.808;9.006;2024-02-26T12:53:12;95437.81;;;16.18;48.89
41703;BME280;861;48.808;9.006;2024-02-26T12:55:39;95437.22;;;16.05;49.26
41703;BME280;861;48.808;9.006;2024-02-26T12:58:08;95432.06;;;15.98;49.74
41703;BME280;861;48.808;9.006;2024-02-26T13:00:35;95446.53;;;16.16;49.37
41703;BME280;861;48.808;9.006;2024-02-26T13:03:03;95443.44;;;16.32;48.09
41703;BME280;861;48.808;9.006;2024-02-26T13:05:32;95450.75;;;16.35;48.92
41703;BME280;861;48.808;9.006;2024-02-26T13:07:59;95450.78;;;16.17;48.39
41703;BME280;861;48.808;9.006;2024-02-26T13:10:26;95450.78;;;16.17;49.94
41703;BME280;861;48.808;9.006;2024-02-26T13:12:53;95453.78;;;16.37;49.07
41703;BME280;861;48.808;9.006;2024-02-26T13:15:22;95452.56;;;16.65;48.77
41703;BME280;861;48.808;9.006;2024-02-26T13:17:50;95446.00;;;16.54;48.22
41703;BME280;861;48.808;9.006;2024-02-26T13:20:28;95450.97;;;16.73;48.61
41703;BME280;861;48.808;9.006;2024-02-26T13:23:04;95450.06;;;16.76;48.53
41703;BME280;861;48.808;9.006;2024-02-26T13:25:33;95457.13;;;17.01;48.14
41703;BME280;861;48.808;9.006;2024-02-26T13:28:17;95463.31;;;17.20;47.14
41703;BME280;861;48.808;9.006;2024-02-26T13:30:55;95463.34;;;17.67;46.86
41703;BME280;861;48.808;9.006;2024-02-26T13:33:25;95460.78;;;17.87;46.48
41703;BME280;861;48.808;9.006;2024-02-26T13:35:54;95450.88;;;17.95;45.84
41703;BME280;861;48.808;9.006;2024-02-26T13:38:22;95459.72;;;17.61;45.89